createdAt,value
2022-09-18T00:00:01.625Z,0.50
2022-09-18T00:00:13.274Z,0.43
2022-09-18T00:00:24.507Z,0.38
2022-09-18T00:00:35.732Z,0.32
2022-09-18T00:00:46.946Z,0.45
2022-09-18T00:00:58.160Z,0.50
2022-09-18T00:01:13.524Z,0.57
2022-09-18T00:01:26.161Z,0.57
2022-09-18T00:01:37.448Z,0.57
2022-09-18T00:01:48.811Z,0.40
2022-09-18T00:02:00.208Z,0.40
2022-09-18T00:02:11.682Z,0.70
2022-09-18T00:02:23.163Z,0.70
2022-09-18T00:02:34.483Z,0.65
2022-09-18T00:02:45.803Z,0.55
2022-09-18T00:02:57.180Z,0.50
2022-09-18T00:03:08.515Z,0.50
2022-09-18T00:03:19.923Z,0.60
2022-09-18T00:03:31.160Z,0.60
2022-09-18T00:03:42.975Z,0.60
2022-09-18T00:03:55.226Z,0.60
2022-09-18T00:04:07.408Z,0.50
2022-09-18T00:04:18.721Z,0.43
2022-09-18T00:04:29.942Z,0.50
2022-09-18T00:04:41.196Z,0.40
2022-09-18T00:04:52.452Z,0.40
2022-09-18T00:05:03.869Z,0.40
2022-09-18T00:05:15.133Z,0.45
2022-09-18T00:05:26.423Z,0.50
2022-09-18T00:05:38.243Z,0.47
2022-09-18T00:05:49.514Z,0.50
2022-09-18T00:06:05.365Z,0.43
2022-09-18T00:06:20.939Z,0.40
2022-09-18T00:06:34.054Z,0.52
2022-09-18T00:06:45.348Z,0.75
2022-09-18T00:06:56.747Z,0.80
2022-09-18T00:07:08.016Z,0.60
2022-09-18T00:07:19.723Z,0.63
2022-09-18T00:07:30.979Z,0.75
2022-09-18T00:07:42.249Z,0.70
2022-09-18T00:07:53.494Z,0.50
2022-09-18T00:08:05.135Z,0.55
2022-09-18T00:08:16.575Z,0.60
2022-09-18T00:08:27.817Z,0.60
2022-09-18T00:08:39.159Z,0.60
2022-09-18T00:08:51.079Z,0.75
2022-09-18T00:09:03.463Z,0.73
2022-09-18T00:09:15.250Z,0.60
2022-09-18T00:09:26.614Z,0.50
2022-09-18T00:09:37.870Z,0.43
2022-09-18T00:09:49.101Z,0.40
2022-09-18T00:10:00.306Z,0.40
2022-09-18T00:10:11.612Z,0.30
2022-09-18T00:10:22.929Z,0.30
2022-09-18T00:10:39.413Z,0.40
2022-09-18T00:10:50.701Z,0.50
2022-09-18T00:11:04.086Z,0.50
2022-09-18T00:11:15.923Z,0.40
2022-09-18T00:11:28.721Z,0.50
2022-09-18T00:11:42.117Z,0.68
2022-09-18T00:11:53.390Z,0.60
2022-09-18T00:12:04.796Z,0.50
2022-09-18T00:12:16.060Z,0.35
2022-09-18T00:12:27.306Z,0.47
2022-09-18T00:12:38.606Z,0.50
2022-09-18T00:12:49.860Z,0.60
2022-09-18T00:13:01.151Z,0.50
2022-09-18T00:13:13.530Z,0.50
2022-09-18T00:13:24.822Z,0.40
2022-09-18T00:13:36.927Z,0.50
2022-09-18T00:13:48.322Z,0.60
2022-09-18T00:13:59.564Z,0.60
2022-09-18T00:14:12.654Z,0.40
2022-09-18T00:14:23.912Z,0.38
2022-09-18T00:14:35.225Z,0.40
2022-09-18T00:14:46.483Z,0.50
2022-09-18T00:14:57.751Z,0.50
2022-09-18T00:15:09.263Z,0.50
2022-09-18T00:15:20.530Z,0.50
2022-09-18T00:15:31.746Z,0.50
2022-09-18T00:15:43.013Z,0.45
2022-09-18T00:15:55.329Z,0.35
2022-09-18T00:16:08.159Z,0.40
2022-09-18T00:16:20.362Z,0.50
2022-09-18T00:16:31.899Z,0.60
2022-09-18T00:16:43.334Z,0.73
2022-09-18T00:16:54.623Z,0.80
2022-09-18T00:17:09.099Z,0.80
2022-09-18T00:17:22.082Z,0.50
2022-09-18T00:17:33.609Z,0.50
2022-09-18T00:17:44.826Z,0.40
2022-09-18T00:17:56.090Z,0.30
2022-09-18T00:18:07.783Z,0.32
2022-09-18T00:18:19.007Z,0.40
2022-09-18T00:18:30.447Z,0.30
2022-09-18T00:18:41.796Z,0.30
2022-09-18T00:18:53.416Z,0.40
2022-09-18T00:19:05.339Z,0.55
2022-09-18T00:19:17.168Z,0.60
2022-09-18T00:19:28.426Z,0.50
2022-09-18T00:19:39.715Z,0.32
2022-09-18T00:19:50.915Z,0.30
2022-09-18T00:20:02.302Z,0.30
2022-09-18T00:20:13.577Z,0.32
2022-09-18T00:20:24.816Z,0.40
2022-09-18T00:20:36.468Z,0.38
2022-09-18T00:20:47.680Z,0.35
2022-09-18T00:21:12.306Z,0.30
2022-09-18T00:21:24.479Z,0.40
2022-09-18T00:21:35.995Z,0.35
2022-09-18T00:21:48.583Z,0.38
2022-09-18T00:21:59.872Z,0.30
2022-09-18T00:22:11.162Z,0.30
2022-09-18T00:22:22.429Z,0.30
2022-09-18T00:22:33.719Z,0.40
2022-09-18T00:22:44.976Z,0.32
2022-09-18T00:22:56.202Z,0.40
2022-09-18T00:23:07.458Z,0.30
2022-09-18T00:23:18.733Z,0.32
2022-09-18T00:23:30.002Z,0.40
2022-09-18T00:23:41.536Z,0.50
2022-09-18T00:23:55.310Z,0.47
2022-09-18T00:24:06.644Z,0.47
2022-09-18T00:24:18.124Z,0.47
2022-09-18T00:24:29.387Z,0.50
2022-09-18T00:24:40.645Z,0.40
2022-09-18T00:24:51.854Z,0.40
2022-09-18T00:25:03.195Z,0.40
2022-09-18T00:25:14.464Z,0.50
2022-09-18T00:25:25.740Z,0.55
2022-09-18T00:25:37.009Z,0.52
2022-09-18T00:25:48.293Z,0.50
2022-09-18T00:25:59.566Z,0.40
2022-09-18T00:26:11.839Z,0.40
2022-09-18T00:26:23.116Z,0.40
2022-09-18T00:26:34.356Z,0.40
2022-09-18T00:26:46.327Z,0.35
2022-09-18T00:26:57.622Z,0.40
2022-09-18T00:27:08.837Z,0.30
2022-09-18T00:27:20.072Z,0.30
2022-09-18T00:27:31.373Z,0.30
2022-09-18T00:27:42.662Z,0.50
2022-09-18T00:27:53.951Z,0.57
2022-09-18T00:28:05.248Z,0.40
2022-09-18T00:28:16.514Z,0.47
2022-09-18T00:28:28.002Z,0.50
2022-09-18T00:28:39.315Z,0.50
2022-09-18T00:28:50.539Z,0.50
2022-09-18T00:29:02.099Z,0.40
2022-09-18T00:29:14.164Z,0.40
2022-09-18T00:29:25.408Z,0.32
2022-09-18T00:29:36.633Z,0.30
2022-09-18T00:29:47.860Z,0.30
2022-09-18T00:29:59.150Z,0.40
2022-09-18T00:30:10.584Z,0.50
2022-09-18T00:30:21.869Z,0.50
2022-09-18T00:30:33.142Z,0.65
2022-09-18T00:30:44.405Z,0.50
2022-09-18T00:30:55.757Z,0.50
2022-09-18T00:31:17.699Z,0.40
2022-09-18T00:31:30.467Z,0.50
2022-09-18T00:31:42.099Z,0.40
2022-09-18T00:31:53.452Z,0.40
2022-09-18T00:32:04.831Z,0.40
2022-09-18T00:32:16.140Z,0.40
2022-09-18T00:32:27.407Z,0.40
2022-09-18T00:32:38.916Z,0.40
2022-09-18T00:32:50.202Z,0.45
2022-09-18T00:33:01.655Z,0.50
2022-09-18T00:33:12.888Z,0.40
2022-09-18T00:33:24.123Z,0.43
2022-09-18T00:33:36.075Z,0.40
2022-09-18T00:33:47.507Z,0.47
2022-09-18T00:33:59.792Z,0.30
2022-09-18T00:34:12.411Z,0.20
2022-09-18T00:34:23.662Z,0.20
2022-09-18T00:34:34.946Z,0.30
2022-09-18T00:34:46.224Z,0.32
2022-09-18T00:34:57.511Z,0.40
2022-09-18T00:35:08.879Z,0.50
2022-09-18T00:35:20.170Z,0.60
2022-09-18T00:35:31.461Z,0.57
2022-09-18T00:35:43.193Z,0.45
2022-09-18T00:35:54.459Z,0.40
2022-09-18T00:36:06.969Z,0.35
2022-09-18T00:36:18.628Z,0.40
2022-09-18T00:36:29.971Z,0.50
2022-09-18T00:36:41.436Z,0.43
2022-09-18T00:36:52.717Z,0.93
2022-09-18T00:37:04.014Z,1.05
2022-09-18T00:37:15.384Z,1.10
2022-09-18T00:37:26.677Z,0.40
2022-09-18T00:37:37.902Z,0.40
2022-09-18T00:37:49.160Z,0.50
2022-09-18T00:38:00.382Z,0.30
2022-09-18T00:38:12.190Z,0.30
2022-09-18T00:38:23.469Z,0.30
2022-09-18T00:38:34.972Z,0.38
2022-09-18T00:38:46.770Z,0.30
2022-09-18T00:38:58.535Z,0.40
2022-09-18T00:39:10.604Z,0.50
2022-09-18T00:39:21.866Z,0.57
2022-09-18T00:39:33.130Z,0.43
2022-09-18T00:39:44.400Z,0.40
2022-09-18T00:39:55.754Z,0.40
2022-09-18T00:40:07.281Z,0.30
2022-09-18T00:40:18.774Z,0.32
2022-09-18T00:40:30.148Z,0.30
2022-09-18T00:40:41.453Z,0.30
2022-09-18T00:40:52.670Z,0.30
2022-09-18T00:41:05.016Z,0.30
2022-09-18T00:41:17.786Z,0.38
2022-09-18T00:41:30.804Z,0.40
2022-09-18T00:41:42.813Z,0.50
2022-09-18T00:41:54.051Z,0.50
2022-09-18T00:42:05.380Z,0.45
2022-09-18T00:42:19.083Z,0.43
2022-09-18T00:42:30.310Z,0.50
2022-09-18T00:42:41.745Z,1.00
2022-09-18T00:42:53.019Z,1.10
2022-09-18T00:43:36.411Z,0.70
2022-09-18T00:43:47.631Z,0.40
2022-09-18T00:44:17.532Z,0.30
2022-09-18T00:44:28.790Z,0.40
2022-09-18T00:44:44.515Z,0.43
2022-09-18T00:44:55.843Z,0.50
2022-09-18T00:45:07.303Z,0.50
2022-09-18T00:45:18.572Z,0.38
2022-09-18T00:45:29.877Z,0.30
2022-09-18T00:45:41.209Z,0.38
2022-09-18T00:45:57.392Z,0.40
2022-09-18T00:46:34.804Z,0.50
2022-09-18T00:46:46.181Z,0.50
2022-09-18T00:47:04.001Z,0.50
2022-09-18T00:47:15.247Z,0.32
2022-09-18T00:47:28.922Z,0.40
2022-09-18T00:47:45.141Z,0.45
2022-09-18T00:47:56.423Z,0.45
2022-09-18T00:48:08.747Z,0.50
2022-09-18T00:48:20.348Z,0.40
2022-09-18T00:48:42.056Z,0.40
2022-09-18T00:48:59.053Z,0.57
2022-09-18T00:49:10.246Z,0.70
2022-09-18T00:49:22.941Z,0.60
2022-09-18T00:49:34.573Z,0.50
2022-09-18T00:49:47.707Z,0.45
2022-09-18T00:49:58.980Z,0.50
2022-09-18T00:50:15.860Z,0.45
2022-09-18T00:50:27.358Z,0.50
2022-09-18T00:50:38.585Z,0.55
2022-09-18T00:50:49.999Z,0.47
2022-09-18T00:51:01.413Z,0.50
2022-09-18T00:51:13.342Z,0.50
2022-09-18T00:51:25.070Z,0.50
2022-09-18T00:51:37.039Z,0.47
2022-09-18T00:51:49.665Z,0.38
2022-09-18T00:52:01.061Z,0.50
2022-09-18T00:52:13.611Z,0.60
2022-09-18T00:52:26.672Z,0.60
2022-09-18T00:52:47.375Z,0.50
2022-09-18T00:53:00.224Z,0.50
2022-09-18T00:53:11.595Z,0.50
2022-09-18T00:53:23.293Z,0.50
2022-09-18T00:53:35.943Z,0.80
2022-09-18T00:53:50.113Z,0.90
2022-09-18T00:54:05.419Z,0.95
2022-09-18T00:54:21.687Z,0.52
2022-09-18T00:54:37.183Z,0.57
2022-09-18T00:54:49.557Z,0.57
2022-09-18T00:55:04.634Z,0.55
2022-09-18T00:55:16.153Z,0.75
2022-09-18T00:55:31.816Z,0.70
2022-09-18T00:55:43.278Z,0.45
2022-09-18T00:55:54.604Z,0.40
2022-09-18T00:56:07.396Z,0.40
2022-09-18T00:56:18.725Z,0.30
2022-09-18T00:56:29.990Z,0.30
2022-09-18T00:56:41.451Z,0.47
2022-09-18T00:56:55.722Z,0.55
2022-09-18T00:57:33.181Z,0.55
2022-09-18T00:57:49.311Z,0.47
2022-09-18T00:58:01.939Z,0.45
2022-09-18T00:58:13.233Z,0.40
2022-09-18T00:58:24.512Z,0.32
2022-09-18T00:58:35.813Z,0.45
2022-09-18T00:58:47.122Z,0.50
2022-09-18T00:58:58.610Z,0.50
2022-09-18T00:59:10.671Z,0.40
2022-09-18T00:59:24.242Z,0.35
2022-09-18T00:59:36.139Z,0.32
2022-09-18T00:59:48.520Z,0.50
2022-09-18T01:00:01.136Z,0.40
2022-09-18T01:00:12.621Z,0.40
2022-09-18T01:00:23.875Z,0.50
2022-09-18T01:00:35.239Z,0.52
2022-09-18T01:00:46.512Z,0.50
2022-09-18T01:00:57.851Z,0.47
2022-09-18T01:01:09.267Z,0.40
2022-09-18T01:01:20.554Z,0.50
2022-09-18T01:01:32.071Z,0.60
2022-09-18T01:01:43.395Z,0.60
2022-09-18T01:01:55.824Z,0.55
2022-09-18T01:02:07.152Z,0.43
2022-09-18T01:02:18.726Z,0.50
2022-09-18T01:02:30.103Z,0.60
2022-09-18T01:02:42.285Z,0.60
2022-09-18T01:02:53.674Z,0.50
2022-09-18T01:03:05.315Z,0.45
2022-09-18T01:03:16.573Z,0.40
2022-09-18T01:03:28.976Z,0.40
2022-09-18T01:03:40.229Z,0.50
2022-09-18T01:03:51.511Z,0.50
2022-09-18T01:04:02.871Z,0.50
2022-09-18T01:04:14.229Z,0.55
2022-09-18T01:04:25.711Z,0.50
2022-09-18T01:04:36.957Z,0.50
2022-09-18T01:04:49.220Z,0.40
2022-09-18T01:05:00.529Z,0.40
2022-09-18T01:05:13.014Z,0.40
2022-09-18T01:05:36.250Z,0.40
2022-09-18T01:05:47.533Z,0.30
2022-09-18T01:05:58.740Z,0.40
2022-09-18T01:06:13.119Z,0.50
2022-09-18T01:06:32.534Z,0.60
2022-09-18T01:06:49.074Z,0.40
2022-09-18T01:07:19.252Z,0.32
2022-09-18T01:07:38.010Z,0.40
2022-09-18T01:08:07.675Z,0.43
2022-09-18T01:08:28.927Z,0.50
2022-09-18T01:09:12.522Z,0.32
2022-09-18T01:09:32.760Z,0.40
2022-09-18T01:09:44.011Z,0.30
2022-09-18T01:09:55.236Z,0.30
2022-09-18T01:10:18.407Z,0.32
2022-09-18T01:10:42.230Z,0.30
2022-09-18T01:10:56.343Z,0.32
2022-09-18T01:11:07.544Z,0.38
2022-09-18T01:11:28.684Z,0.30
2022-09-18T01:11:50.052Z,0.30
2022-09-18T01:12:07.687Z,0.32
2022-09-18T01:12:30.582Z,0.20
2022-09-18T01:13:03.858Z,0.40
2022-09-18T01:13:23.852Z,0.43
2022-09-18T01:13:45.399Z,0.50
2022-09-18T01:14:22.661Z,0.40
2022-09-18T01:14:38.800Z,0.40
2022-09-18T01:15:08.846Z,0.32
2022-09-18T01:15:52.300Z,0.32
2022-09-18T01:16:12.180Z,0.50
2022-09-18T01:16:35.688Z,0.50
2022-09-18T01:17:05.195Z,0.40
2022-09-18T01:17:24.134Z,0.43
2022-09-18T01:17:44.619Z,0.40
2022-09-18T01:18:02.443Z,0.28
2022-09-18T01:18:40.049Z,0.40
2022-09-18T01:19:04.414Z,0.30
2022-09-18T01:19:33.899Z,0.30
2022-09-18T01:20:00.476Z,0.20
2022-09-18T01:20:14.680Z,0.30
2022-09-18T01:20:26.010Z,0.40
2022-09-18T01:21:01.642Z,0.40
2022-09-18T01:21:17.297Z,0.30
2022-09-18T01:21:33.142Z,0.30
2022-09-18T01:21:49.400Z,0.30
2022-09-18T01:22:05.161Z,0.30
2022-09-18T01:22:31.507Z,0.30
2022-09-18T01:22:42.718Z,0.30
2022-09-18T01:22:53.910Z,0.30
2022-09-18T01:23:11.274Z,0.30
2022-09-18T01:23:34.735Z,0.40
2022-09-18T01:24:11.793Z,0.40
2022-09-18T01:24:41.854Z,0.20
2022-09-18T01:25:07.483Z,0.20
2022-09-18T01:25:27.895Z,0.43
2022-09-18T01:25:39.152Z,0.30
2022-09-18T01:25:56.448Z,0.30
2022-09-18T01:26:10.680Z,0.28
2022-09-18T01:26:40.598Z,0.20
2022-09-18T01:26:56.316Z,0.30
2022-09-18T01:27:10.500Z,0.47
2022-09-18T01:27:38.573Z,0.60
2022-09-18T01:28:07.408Z,0.32
2022-09-18T01:28:18.638Z,0.60
2022-09-18T01:28:37.509Z,0.40
2022-09-18T01:28:51.833Z,0.30
2022-09-18T01:29:18.343Z,0.30
2022-09-18T01:29:35.612Z,0.32
2022-09-18T01:29:59.106Z,0.40
2022-09-18T01:30:11.917Z,0.40
2022-09-18T01:30:23.235Z,0.45
2022-09-18T01:30:36.483Z,0.40
2022-09-18T01:30:49.088Z,0.47
2022-09-18T01:31:02.893Z,0.38
2022-09-18T01:31:27.509Z,0.45
2022-09-18T01:31:45.643Z,0.43
2022-09-18T01:32:01.101Z,0.52
2022-09-18T01:32:19.576Z,0.57
2022-09-18T01:32:43.200Z,0.35
2022-09-18T01:32:59.039Z,0.30
2022-09-18T01:33:12.903Z,0.35
2022-09-18T01:33:39.083Z,0.40
2022-09-18T01:33:53.015Z,0.50
2022-09-18T01:34:13.441Z,0.45
2022-09-18T01:34:51.027Z,0.50
2022-09-18T01:35:09.607Z,0.60
2022-09-18T01:35:40.532Z,0.47
2022-09-18T01:35:53.978Z,0.55
2022-09-18T01:36:07.540Z,0.47
2022-09-18T01:36:20.199Z,0.50
2022-09-18T01:36:35.536Z,0.50
2022-09-18T01:36:51.129Z,0.40
2022-09-18T01:37:05.665Z,0.50
2022-09-18T01:37:19.247Z,0.65
2022-09-18T01:37:36.599Z,0.50
2022-09-18T01:37:52.945Z,0.40
2022-09-18T01:38:08.518Z,0.30
2022-09-18T01:38:23.488Z,0.30
2022-09-18T01:38:37.450Z,0.40
2022-09-18T01:38:54.077Z,0.60
2022-09-18T01:39:05.330Z,0.60
2022-09-18T01:39:27.826Z,0.60
2022-09-18T01:39:43.344Z,0.50
2022-09-18T01:40:02.720Z,0.70
2022-09-18T01:40:20.090Z,0.60
2022-09-18T01:40:33.367Z,0.30
2022-09-18T01:40:48.656Z,0.40
2022-09-18T01:41:06.749Z,0.47
2022-09-18T01:41:23.911Z,0.55
2022-09-18T01:41:37.127Z,0.43
2022-09-18T01:41:49.355Z,0.38
2022-09-18T01:42:01.534Z,0.40
2022-09-18T01:42:14.134Z,0.68
2022-09-18T01:42:28.161Z,0.80
2022-09-18T01:42:40.384Z,0.57
2022-09-18T01:42:53.003Z,0.45
2022-09-18T01:43:06.788Z,0.50
2022-09-18T01:43:19.354Z,0.47
2022-09-18T01:43:31.559Z,0.60
2022-09-18T01:43:44.198Z,0.50
2022-09-18T01:44:11.901Z,0.45
2022-09-18T01:44:28.503Z,0.50
2022-09-18T01:44:42.707Z,0.50
2022-09-18T01:44:55.276Z,0.50
2022-09-18T01:45:11.748Z,0.50
2022-09-18T01:45:24.531Z,0.40
2022-09-18T01:45:38.396Z,0.43
2022-09-18T01:45:51.836Z,0.50
2022-09-18T01:46:07.191Z,0.60
2022-09-18T01:46:19.713Z,0.70
2022-09-18T01:46:31.340Z,0.52
2022-09-18T01:46:44.058Z,0.30
2022-09-18T01:46:57.388Z,0.40
2022-09-18T01:47:10.237Z,0.40
2022-09-18T01:47:22.556Z,0.45
2022-09-18T01:47:36.986Z,0.40
2022-09-18T01:47:51.267Z,0.40
2022-09-18T01:48:06.959Z,0.40
2022-09-18T01:48:24.925Z,0.30
2022-09-18T01:48:42.208Z,0.40
2022-09-18T01:48:56.136Z,0.43
2022-09-18T01:49:09.846Z,0.30
2022-09-18T01:49:23.368Z,0.22
2022-09-18T01:49:38.269Z,0.20
2022-09-18T01:49:50.696Z,0.28
2022-09-18T01:50:02.751Z,0.55
2022-09-18T01:50:14.781Z,0.70
2022-09-18T01:50:28.204Z,0.63
2022-09-18T01:50:42.640Z,0.40
2022-09-18T01:50:55.548Z,0.47
2022-09-18T01:51:12.322Z,0.50
2022-09-18T01:51:26.391Z,0.43
2022-09-18T01:52:03.723Z,0.50
2022-09-18T01:52:23.520Z,0.52
2022-09-18T01:52:55.330Z,0.50
2022-09-18T01:53:10.994Z,0.57
2022-09-18T01:53:24.370Z,0.50
2022-09-18T01:53:43.811Z,0.50
2022-09-18T01:53:58.893Z,0.43
2022-09-18T01:54:13.667Z,0.38
2022-09-18T01:54:27.136Z,0.40
2022-09-18T01:54:40.089Z,0.40
2022-09-18T01:54:52.122Z,0.40
2022-09-18T01:55:06.444Z,0.40
2022-09-18T01:55:19.296Z,0.30
2022-09-18T01:55:31.124Z,0.40
2022-09-18T01:55:45.790Z,0.50
2022-09-18T01:56:01.271Z,0.63
2022-09-18T01:56:16.071Z,0.50
2022-09-18T01:56:30.552Z,0.30
2022-09-18T01:57:04.423Z,0.32
2022-09-18T01:57:39.002Z,0.35
2022-09-18T01:58:13.259Z,0.50
2022-09-18T01:58:27.186Z,0.43
2022-09-18T01:58:38.557Z,0.30
2022-09-18T01:58:51.177Z,0.40
2022-09-18T01:59:03.857Z,0.40
2022-09-18T01:59:19.191Z,0.50
2022-09-18T01:59:36.544Z,0.60
2022-09-18T01:59:56.635Z,0.50
2022-09-18T02:00:09.888Z,0.50
2022-09-18T02:00:21.508Z,0.40
2022-09-18T02:00:33.655Z,0.40
2022-09-18T02:00:49.155Z,0.40
2022-09-18T02:01:02.674Z,0.40
2022-09-18T02:01:15.404Z,0.35
2022-09-18T02:01:28.360Z,0.30
2022-09-18T02:01:42.331Z,0.35
2022-09-18T02:01:55.267Z,0.30
2022-09-18T02:02:08.223Z,0.40
2022-09-18T02:02:27.580Z,0.40
2022-09-18T02:02:42.073Z,0.30
2022-09-18T02:03:08.837Z,0.40
2022-09-18T02:03:22.164Z,0.40
2022-09-18T02:03:37.410Z,0.40
2022-09-18T02:03:50.674Z,0.50
2022-09-18T02:04:08.445Z,0.60
2022-09-18T02:04:22.411Z,0.50
2022-09-18T02:04:35.645Z,0.40
2022-09-18T02:04:50.072Z,0.50
2022-09-18T02:05:04.957Z,0.55
2022-09-18T02:05:19.800Z,0.40
2022-09-18T02:05:36.922Z,0.40
2022-09-18T02:05:51.943Z,0.45
2022-09-18T02:06:05.635Z,0.40
2022-09-18T02:06:21.550Z,0.40
2022-09-18T02:06:36.287Z,0.43
2022-09-18T02:06:47.514Z,0.43
2022-09-18T02:07:01.772Z,0.40
2022-09-18T02:07:18.667Z,0.30
2022-09-18T02:07:48.685Z,0.52
2022-09-18T02:08:05.850Z,0.40
2022-09-18T02:08:20.180Z,0.40
2022-09-18T02:08:38.417Z,0.55
2022-09-18T02:08:52.187Z,0.50
2022-09-18T02:09:03.807Z,0.40
2022-09-18T02:09:15.143Z,0.35
2022-09-18T02:09:26.977Z,0.50
2022-09-18T02:09:38.234Z,0.65
2022-09-18T02:09:49.582Z,0.65
2022-09-18T02:10:00.873Z,0.57
2022-09-18T02:10:12.283Z,0.50
2022-09-18T02:10:25.033Z,0.50
2022-09-18T02:10:38.642Z,0.50
2022-09-18T02:10:51.913Z,0.60
2022-09-18T02:11:06.254Z,0.50
2022-09-18T02:11:18.535Z,0.30
2022-09-18T02:11:31.678Z,0.40
2022-09-18T02:11:45.917Z,0.40
2022-09-18T02:11:59.306Z,0.47
2022-09-18T02:12:13.419Z,0.52
2022-09-18T02:12:26.192Z,0.52
2022-09-18T02:12:39.506Z,0.45
2022-09-18T02:12:51.609Z,0.30
2022-09-18T02:13:04.445Z,0.43
2022-09-18T02:13:18.229Z,0.50
2022-09-18T02:13:31.797Z,0.40
2022-09-18T02:13:49.470Z,0.40
2022-09-18T02:14:15.976Z,0.40
2022-09-18T02:14:29.999Z,0.55
2022-09-18T02:14:43.764Z,0.60
2022-09-18T02:14:57.117Z,0.50
2022-09-18T02:15:12.592Z,0.60
2022-09-18T02:15:25.691Z,0.60
2022-09-18T02:15:39.003Z,0.50
2022-09-18T02:15:52.127Z,0.50
2022-09-18T02:16:06.749Z,0.52
2022-09-18T02:16:20.995Z,0.60
2022-09-18T02:16:34.543Z,0.50
2022-09-18T02:16:48.024Z,0.30
2022-09-18T02:17:06.838Z,0.45
2022-09-18T02:17:22.017Z,0.50
2022-09-18T02:17:35.893Z,0.60
2022-09-18T02:17:52.835Z,0.80
2022-09-18T02:18:10.103Z,0.77
2022-09-18T02:18:26.359Z,0.60
2022-09-18T02:18:40.349Z,0.47
2022-09-18T02:18:53.514Z,0.50
2022-09-18T02:19:25.323Z,0.60
2022-09-18T02:20:05.714Z,0.70
2022-09-18T02:20:21.783Z,0.55
2022-09-18T02:20:34.171Z,0.60
2022-09-18T02:20:46.953Z,0.43
2022-09-18T02:20:58.475Z,0.50
2022-09-18T02:21:11.780Z,0.55
2022-09-18T02:21:26.216Z,0.50
2022-09-18T02:21:38.053Z,0.60
2022-09-18T02:21:50.366Z,0.70
2022-09-18T02:22:03.723Z,0.80
2022-09-18T02:22:16.802Z,0.57
2022-09-18T02:22:29.653Z,0.40
2022-09-18T02:22:42.815Z,0.45
2022-09-18T02:22:56.352Z,0.57
2022-09-18T02:23:08.255Z,0.80
2022-09-18T02:23:19.827Z,0.80
2022-09-18T02:23:32.301Z,0.50
2022-09-18T02:23:44.161Z,0.43
2022-09-18T02:23:57.867Z,0.40
2022-09-18T02:24:10.667Z,0.40
2022-09-18T02:24:24.547Z,0.40
2022-09-18T02:24:37.482Z,0.38
2022-09-18T02:24:50.664Z,0.38
2022-09-18T02:25:04.227Z,0.50
2022-09-18T02:25:17.824Z,0.55
2022-09-18T02:25:38.525Z,0.50
2022-09-18T02:25:52.586Z,0.40
2022-09-18T02:26:04.266Z,0.43
2022-09-18T02:26:17.044Z,0.47
2022-09-18T02:26:28.572Z,0.50
2022-09-18T02:26:40.333Z,0.50
2022-09-18T02:26:53.388Z,0.43
2022-09-18T02:27:06.210Z,0.43
2022-09-18T02:27:17.905Z,0.40
2022-09-18T02:27:30.433Z,0.40
2022-09-18T02:27:41.857Z,0.40
2022-09-18T02:27:53.777Z,0.52
2022-09-18T02:28:06.535Z,0.50
2022-09-18T02:28:18.995Z,0.50
2022-09-18T02:28:31.663Z,0.50
2022-09-18T02:28:43.716Z,0.47
2022-09-18T02:28:55.767Z,0.43
2022-09-18T02:29:08.551Z,0.40
2022-09-18T02:29:21.173Z,0.40
2022-09-18T02:29:33.110Z,0.40
2022-09-18T02:29:45.698Z,0.50
2022-09-18T02:29:58.171Z,0.63
2022-09-18T02:30:09.761Z,0.60
2022-09-18T02:30:21.027Z,0.50
2022-09-18T02:30:32.570Z,0.40
2022-09-18T02:30:43.958Z,0.40
2022-09-18T02:30:55.234Z,0.40
2022-09-18T02:31:06.549Z,0.40
2022-09-18T02:31:17.922Z,0.40
2022-09-18T02:31:29.306Z,0.40
2022-09-18T02:31:40.833Z,0.40
2022-09-18T02:31:52.146Z,0.40
2022-09-18T02:32:03.846Z,0.40
2022-09-18T02:32:15.072Z,0.35
2022-09-18T02:32:26.286Z,0.40
2022-09-18T02:32:38.229Z,0.35
2022-09-18T02:32:53.365Z,0.47
2022-09-18T02:33:05.022Z,0.50
2022-09-18T02:33:32.346Z,0.40
2022-09-18T02:33:43.637Z,0.30
2022-09-18T02:33:55.167Z,0.40
2022-09-18T02:34:08.111Z,0.40
2022-09-18T02:34:19.988Z,0.45
2022-09-18T02:34:31.534Z,0.50
2022-09-18T02:34:42.867Z,0.43
2022-09-18T02:34:54.129Z,0.40
2022-09-18T02:35:07.008Z,0.45
2022-09-18T02:35:18.344Z,0.60
2022-09-18T02:35:37.652Z,0.57
2022-09-18T02:35:51.656Z,0.30
2022-09-18T02:36:02.903Z,0.40
2022-09-18T02:36:29.106Z,0.50
2022-09-18T02:36:43.377Z,0.50
2022-09-18T02:36:54.625Z,0.50
2022-09-18T02:37:24.212Z,0.40
2022-09-18T02:37:54.199Z,0.60
2022-09-18T02:38:17.636Z,0.38
2022-09-18T02:38:35.602Z,0.40
2022-09-18T02:38:57.238Z,0.40
2022-09-18T02:39:08.523Z,0.40
2022-09-18T02:39:22.800Z,0.50
2022-09-18T02:39:40.113Z,0.50
2022-09-18T02:40:03.715Z,0.40
2022-09-18T02:40:15.080Z,0.40
2022-09-18T02:40:44.951Z,0.35
2022-09-18T02:41:01.693Z,0.80
2022-09-18T02:41:29.471Z,0.40
2022-09-18T02:41:49.097Z,0.60
2022-09-18T02:42:07.954Z,0.47
2022-09-18T02:42:38.021Z,0.50
2022-09-18T02:42:58.129Z,0.50
2022-09-18T02:43:18.352Z,0.50
2022-09-18T02:43:35.681Z,0.50
2022-09-18T02:43:49.982Z,0.50
2022-09-18T02:44:18.519Z,0.40
2022-09-18T02:44:45.401Z,0.40
2022-09-18T02:44:56.616Z,0.40
2022-09-18T02:45:19.856Z,0.38
2022-09-18T02:45:37.109Z,0.40
2022-09-18T02:45:54.344Z,0.50
2022-09-18T02:46:05.690Z,0.45
2022-09-18T02:46:32.083Z,0.45
2022-09-18T02:47:03.627Z,0.30
2022-09-18T02:47:14.883Z,0.32
2022-09-18T02:47:48.851Z,0.40
2022-09-18T02:48:02.905Z,0.32
2022-09-18T02:48:25.328Z,0.40
2022-09-18T02:48:54.988Z,0.28
2022-09-18T02:49:09.373Z,0.25
2022-09-18T02:49:32.509Z,0.20
2022-09-18T02:49:53.429Z,0.30
2022-09-18T02:50:30.871Z,0.30
2022-09-18T02:51:00.660Z,0.40
2022-09-18T02:51:18.403Z,0.30
2022-09-18T02:51:49.942Z,0.30
2022-09-18T02:52:06.210Z,0.30
2022-09-18T02:52:23.930Z,0.28
2022-09-18T02:52:42.515Z,0.30
2022-09-18T02:53:03.002Z,0.40
2022-09-18T02:53:25.114Z,0.40
2022-09-18T02:53:42.104Z,0.30
2022-09-18T02:54:05.230Z,0.40
2022-09-18T02:54:22.871Z,0.22
2022-09-18T02:54:48.933Z,0.30
2022-09-18T02:55:04.908Z,0.20
2022-09-18T02:55:18.359Z,0.30
2022-09-18T02:55:38.869Z,0.60
2022-09-18T02:55:51.391Z,0.55
2022-09-18T02:56:21.090Z,0.40
2022-09-18T02:56:41.244Z,0.30
2022-09-18T02:56:55.945Z,0.32
2022-09-18T02:57:27.447Z,0.38
2022-09-18T02:57:40.318Z,0.40
2022-09-18T02:58:03.336Z,0.40
2022-09-18T02:58:25.053Z,0.30
2022-09-18T02:58:42.467Z,0.20
2022-09-18T02:59:02.460Z,0.30
2022-09-18T02:59:25.644Z,0.40
2022-09-18T02:59:38.895Z,0.32
2022-09-18T02:59:55.455Z,0.20
2022-09-18T03:00:07.815Z,0.30
2022-09-18T03:00:19.078Z,0.30
2022-09-18T03:00:31.552Z,0.38
2022-09-18T03:00:44.252Z,0.32
2022-09-18T03:00:57.521Z,0.38
2022-09-18T03:01:10.125Z,0.30
2022-09-18T03:01:23.240Z,0.20
2022-09-18T03:01:34.848Z,0.20
2022-09-18T03:01:46.494Z,0.20
2022-09-18T03:01:58.662Z,0.20
2022-09-18T03:02:10.104Z,0.20
2022-09-18T03:02:21.805Z,0.20
2022-09-18T03:02:33.234Z,0.20
2022-09-18T03:02:45.493Z,0.20
2022-09-18T03:02:57.339Z,0.40
2022-09-18T03:03:12.971Z,0.40
2022-09-18T03:03:28.278Z,0.30
2022-09-18T03:03:39.566Z,0.30
2022-09-18T03:03:51.343Z,0.30
2022-09-18T03:04:03.774Z,0.30
2022-09-18T03:04:19.165Z,0.30
2022-09-18T03:04:30.431Z,0.30
2022-09-18T03:04:41.948Z,0.30
2022-09-18T03:04:53.525Z,0.30
2022-09-18T03:05:05.026Z,0.38
2022-09-18T03:05:16.355Z,0.40
2022-09-18T03:05:27.683Z,0.40
2022-09-18T03:05:38.969Z,0.30
2022-09-18T03:05:50.183Z,0.40
2022-09-18T03:06:01.399Z,0.30
2022-09-18T03:06:12.756Z,0.30
2022-09-18T03:06:24.002Z,0.25
2022-09-18T03:06:35.292Z,0.28
2022-09-18T03:06:46.535Z,0.30
2022-09-18T03:06:57.822Z,0.30
2022-09-18T03:07:09.142Z,0.30
2022-09-18T03:07:20.467Z,0.35
2022-09-18T03:07:31.783Z,0.40
2022-09-18T03:07:43.241Z,0.50
2022-09-18T03:07:54.465Z,0.40
2022-09-18T03:08:05.684Z,0.25
2022-09-18T03:08:16.890Z,0.20
2022-09-18T03:08:28.142Z,0.20
2022-09-18T03:08:39.455Z,0.30
2022-09-18T03:08:50.708Z,0.30
2022-09-18T03:09:01.928Z,0.40
2022-09-18T03:09:13.569Z,0.40
2022-09-18T03:09:25.092Z,0.38
2022-09-18T03:09:36.377Z,0.32
2022-09-18T03:09:47.731Z,0.40
2022-09-18T03:09:58.969Z,0.40
2022-09-18T03:10:10.412Z,0.30
2022-09-18T03:10:21.631Z,0.35
2022-09-18T03:10:32.835Z,0.40
2022-09-18T03:10:44.039Z,0.50
2022-09-18T03:10:55.281Z,0.40
2022-09-18T03:11:06.568Z,0.38
2022-09-18T03:11:17.800Z,0.30
2022-09-18T03:11:29.011Z,0.30
2022-09-18T03:11:40.252Z,0.30
2022-09-18T03:11:51.524Z,0.30
2022-09-18T03:12:02.775Z,0.40
2022-09-18T03:12:14.105Z,0.40
2022-09-18T03:12:25.362Z,0.40
2022-09-18T03:12:36.639Z,0.40
2022-09-18T03:12:47.884Z,0.40
2022-09-18T03:12:59.112Z,0.35
2022-09-18T03:13:10.421Z,0.30
2022-09-18T03:13:21.665Z,0.22
2022-09-18T03:13:32.905Z,0.30
2022-09-18T03:13:44.144Z,0.30
2022-09-18T03:13:55.354Z,0.30
2022-09-18T03:14:06.559Z,0.30
2022-09-18T03:14:17.808Z,0.30
2022-09-18T03:14:29.035Z,0.30
2022-09-18T03:14:40.377Z,0.30